Time;durP1;ratioP1;P1;durP2;ratioP2;P2;SDS_P1;SDS_P2;PMS_P1;PMS_P2;Temp;Humidity;BMP_temperature;BMP_pressure;BME280_temperature;BME280_humidity;BME280_pressure;Samples;Min_cycle;Max_cycle;Signal;HPM_P1;HPM_P2
2023/04/02 00:00:27;;;;;;;8.35;5.88;;;4.70;99.90;;;;;;5073225;28;20107;-80
2023/04/02 00:03:00;;;;;;;9.60;5.93;;;4.70;99.90;;;;;;5073128;28;20451;-81
2023/04/02 00:05:33;;;;;;;7.78;6.05;;;4.60;99.90;;;;;;5072334;28;20043;-80
2023/04/02 00:08:25;;;;;;;9.10;5.82;;;4.60;99.90;;;;;;5071712;28;20075;-81
2023/04/02 00:10:56;;;;;;;5.97;5.18;;;4.60;99.90;;;;;;5090086;28;20125;-81
2023/04/02 00:13:35;;;;;;;6.75;5.63;;;4.60;99.90;;;;;;5071720;28;20093;-80
2023/04/02 00:16:02;;;;;;;7.70;5.55;;;4.60;99.90;;;;;;5072788;28;20044;-81
2023/04/02 00:18:29;;;;;;;8.82;5.95;;;4.60;99.90;;;;;;5071807;28;20051;-81
2023/04/02 00:20:59;;;;;;;8.90;5.70;;;4.60;99.90;;;;;;5073186;28;20048;-81
2023/04/02 00:23:25;;;;;;;6.03;5.40;;;4.60;99.90;;;;;;5072168;28;20075;-81
2023/04/02 00:25:51;;;;;;;5.68;5.13;;;4.60;99.90;;;;;;5054561;28;20070;-80
2023/04/02 00:28:20;;;;;;;6.57;5.50;;;4.50;99.90;;;;;;5070813;28;20048;-80
2023/04/02 00:30:52;;;;;;;9.10;5.72;;;4.60;99.90;;;;;;5073003;28;20101;-80
2023/04/02 00:33:21;;;;;;;7.60;5.95;;;4.50;99.90;;;;;;5071918;28;20040;-81
2023/04/02 00:35:49;;;;;;;7.03;5.20;;;4.50;99.90;;;;;;5070926;28;20074;-81
2023/04/02 00:38:21;;;;;;;6.85;5.68;;;4.50;99.90;;;;;;5071880;28;20044;-80
2023/04/02 00:40:48;;;;;;;7.85;5.60;;;4.50;99.90;;;;;;5072129;28;20112;-81
2023/04/02 00:43:15;;;;;;;10.80;5.63;;;4.50;99.90;;;;;;5071753;28;20083;-80
2023/04/02 00:45:49;;;;;;;7.55;5.65;;;4.50;99.90;;;;;;5072553;28;20513;-81
2023/04/02 00:48:30;;;;;;;8.82;5.80;;;4.40;99.90;;;;;;5054530;28;20047;-81
2023/04/02 00:51:15;;;;;;;6.90;5.82;;;4.40;99.90;;;;;;5055653;28;20131;-80
2023/04/02 00:53:45;;;;;;;7.00;4.75;;;4.40;99.90;;;;;;5071210;28;20225;-80
2023/04/02 00:56:31;;;;;;;6.25;5.25;;;4.40;99.90;;;;;;5073298;28;20427;-80
2023/04/02 00:58:57;;;;;;;8.88;5.00;;;4.30;99.90;;;;;;5072466;28;20058;-81
2023/04/02 01:01:41;;;;;;;5.80;4.65;;;4.30;99.90;;;;;;5070583;28;20048;-80
2023/04/02 01:04:33;;;;;;;5.32;4.55;;;4.30;99.90;;;;;;5052125;28;20367;-81
2023/04/02 01:07:03;;;;;;;5.77;4.37;;;4.20;99.90;;;;;;5071664;28;20044;-81
2023/04/02 01:09:54;;;;;;;5.85;4.88;;;4.20;99.90;;;;;;5069035;28;20491;-81
2023/04/02 01:12:52;;;;;;;5.78;5.00;;;4.20;99.90;;;;;;5071232;28;20052;-81
2023/04/02 01:15:29;;;;;;;6.82;4.55;;;4.10;99.90;;;;;;5001317;28;20057;-80
2023/04/02 01:18:25;;;;;;;4.53;4.10;;;4.10;99.90;;;;;;5053181;28;20093;-81
2023/04/02 01:20:58;;;;;;;6.10;4.57;;;4.10;99.90;;;;;;5071299;28;20059;-80
2023/04/02 01:24:06;;;;;;;7.15;5.30;;;4.00;99.90;;;;;;5069437;28;20049;-81
2023/04/02 01:26:56;;;;;;;6.10;4.75;;;4.00;99.90;;;;;;5071078;28;20104;-81
2023/04/02 01:29:24;;;;;;;6.47;4.40;;;3.90;99.90;;;;;;5069214;28;20040;-81
2023/04/02 01:31:54;;;;;;;6.82;4.63;;;3.80;99.90;;;;;;5070594;28;20097;-80
2023/04/02 01:34:23;;;;;;;6.90;4.63;;;3.70;99.90;;;;;;5088384;28;20469;-81
2023/04/02 01:37:26;;;;;;;7.50;4.82;;;3.60;99.90;;;;;;5068456;28;20060;-80
2023/04/02 01:40:30;;;;;;;7.47;4.75;;;3.50;99.90;;;;;;5069757;28;20075;-81
2023/04/02 01:43:22;;;;;;;7.03;4.40;;;3.40;99.90;;;;;;5055150;28;20087;-81
2023/04/02 01:45:48;;;;;;;8.40;4.93;;;3.30;99.90;;;;;;5070250;28;20075;-81
2023/04/02 01:48:21;;;;;;;4.90;4.32;;;3.20;99.90;;;;;;5069910;28;20051;-80
2023/04/02 01:50:48;;;;;;;;;;;3.10;99.90;;;;;;5090138;28;20051;-81
2023/04/02 01:53:15;;;;;;;8.38;4.20;;;3.00;99.90;;;;;;5053924;28;20446;-81
2023/04/02 01:55:46;;;;;;;6.93;4.18;;;2.90;99.90;;;;;;5068809;28;20055;-81
2023/04/02 01:58:16;;;;;;;7.32;4.57;;;2.90;99.90;;;;;;5069249;28;20470;-80
2023/04/02 02:01:04;;;;;;;6.32;4.10;;;2.80;99.90;;;;;;5072364;28;20381;-81
2023/04/02 02:03:31;;;;;;;11.75;4.05;;;2.70;99.90;;;;;;5069691;28;20076;-81
2023/04/02 02:05:57;;;;;;;6.72;4.28;;;2.70;99.90;;;;;;5070181;28;20478;-80
2023/04/02 02:08:45;;;;;;;6.05;3.85;;;2.70;99.90;;;;;;5069412;28;20471;-80
2023/04/02 02:11:15;;;;;;;6.55;3.78;;;2.60;99.90;;;;;;5067155;28;20051;-81
2023/04/02 02:13:46;;;;;;;7.47;3.90;;;2.60;99.90;;;;;;5069744;28;20047;-81
2023/04/02 02:16:16;;;;;;;5.78;3.83;;;2.50;99.90;;;;;;5070713;28;20040;-81
2023/04/02 02:18:43;;;;;;;6.45;4.00;;;2.50;99.90;;;;;;5069777;28;20044;-81
2023/04/02 02:21:11;;;;;;;6.40;4.00;;;2.40;99.90;;;;;;5070439;28;20165;-81
2023/04/02 02:23:37;;;;;;;5.78;3.70;;;2.40;99.90;;;;;;5068939;28;20061;-81
2023/04/02 02:26:05;;;;;;;4.85;3.65;;;2.30;99.90;;;;;;5070543;28;20039;-81
2023/04/02 02:28:38;;;;;;;7.43;4.20;;;2.30;99.90;;;;;;5068708;28;20048;-80
2023/04/02 02:31:05;;;;;;;;;;;2.30;99.90;;;;;;5088986;28;20048;-81
2023/04/02 02:33:37;;;;;;;6.22;3.55;;;2.20;99.90;;;;;;5070003;28;19926;-81
2023/04/02 02:36:15;;;;;;;7.82;3.83;;;2.20;99.90;;;;;;5086366;28;20051;-81
2023/04/02 02:38:49;;;;;;;7.18;3.83;;;2.20;99.90;;;;;;5053897;28;20363;-81
2023/04/02 02:41:41;;;;;;;5.88;3.60;;;2.10;99.90;;;;;;5069810;28;20505;-80
2023/04/02 02:44:14;;;;;;;6.32;3.45;;;2.10;99.90;;;;;;5088547;28;20535;-81
2023/04/02 02:46:48;;;;;;;8.15;3.90;;;2.00;99.90;;;;;;5070223;28;20047;-80
2023/04/02 02:49:18;;;;;;;5.97;3.97;;;2.00;99.90;;;;;;5069780;28;20059;-80
2023/04/02 02:51:59;;;;;;;7.72;3.88;;;1.90;99.90;;;;;;5071063;28;20040;-81
2023/04/02 02:54:26;;;;;;;7.75;3.90;;;1.90;99.90;;;;;;5069545;28;20134;-81
2023/04/02 02:57:00;;;;;;;6.40;3.20;;;1.90;99.90;;;;;;5069306;28;20105;-80
2023/04/02 02:59:28;;;;;;;4.72;3.20;;;1.90;99.90;;;;;;5045402;28;20399;-80
2023/04/02 03:01:54;;;;;;;6.07;3.88;;;1.80;99.90;;;;;;5071287;28;20455;-81
2023/04/02 03:04:23;;;;;;;5.13;3.25;;;1.80;99.90;;;;;;5069140;28;20072;-80
2023/04/02 03:06:54;;;;;;;6.00;3.40;;;1.80;99.90;;;;;;5069606;28;20398;-80
2023/04/02 03:09:44;;;;;;;5.95;3.40;;;1.70;99.90;;;;;;5041856;28;20172;-80
2023/04/02 03:12:52;;;;;;;5.25;3.05;;;1.70;99.90;;;;;;5035634;28;20127;-80
2023/04/02 03:15:24;;;;;;;6.32;2.90;;;1.70;99.90;;;;;;5057655;28;20056;-80
2023/04/02 03:18:26;;;;;;;3.88;3.20;;;1.70;99.90;;;;;;5074645;28;20059;-80
2023/04/02 03:20:59;;;;;;;4.82;3.00;;;1.60;99.90;;;;;;5069581;28;20059;-81
2023/04/02 03:23:31;;;;;;;3.97;2.78;;;1.60;99.90;;;;;;5086086;28;20505;-81
2023/04/02 03:26:13;;;;;;;9.00;3.55;;;1.70;99.90;;;;;;5070500;28;20371;-81
2023/04/02 03:28:45;;;;;;;11.50;3.78;;;1.70;99.90;;;;;;5066421;28;20361;-80
2023/04/02 03:31:25;;;;;;;5.85;3.40;;;1.70;99.90;;;;;;5069863;28;20092;-80
2023/04/02 03:33:57;;;;;;;5.57;3.22;;;1.70;99.90;;;;;;5069455;28;20133;-80
2023/04/02 03:36:37;;;;;;;5.30;3.00;;;1.70;99.90;;;;;;5070554;28;20044;-80
2023/04/02 03:39:12;;;;;;;5.60;2.90;;;1.70;99.90;;;;;;5086830;28;20044;-81
2023/04/02 03:41:55;;;;;;;4.03;2.80;;;1.70;99.90;;;;;;5069556;28;20470;-81
2023/04/02 03:44:37;;;;;;;8.82;3.42;;;1.80;99.90;;;;;;5069927;28;20120;-81
2023/04/02 03:47:28;;;;;;;6.87;3.70;;;1.80;99.90;;;;;;5051027;28;20090;-80
2023/04/02 03:50:01;;;;;;;7.13;3.22;;;1.80;99.90;;;;;;5053934;28;20058;-80
2023/04/02 03:52:29;;;;;;;5.45;3.13;;;1.80;99.90;;;;;;5069219;28;20133;-80
2023/04/02 03:54:56;;;;;;;4.60;3.20;;;2.10;99.90;;;;;;5088202;28;20048;-81
2023/04/02 03:57:45;;;;;;;4.40;2.95;;;1.90;99.90;;;;;;5067094;28;20117;-80
2023/04/02 04:00:29;;;;;;;5.32;3.30;;;1.90;99.90;;;;;;5053295;28;20046;-81
2023/04/02 04:03:01;;;;;;;4.38;2.90;;;1.90;99.90;;;;;;5068766;28;20123;-81
2023/04/02 04:05:34;;;;;;;5.10;3.42;;;1.90;99.90;;;;;;5072544;28;20107;-80
2023/04/02 04:08:01;;;;;;;;;;;1.90;99.90;;;;;;5073336;28;20048;-81
2023/04/02 04:10:28;;;;;;;6.28;3.13;;;1.90;99.90;;;;;;5070824;28;19934;-81
2023/04/02 04:13:01;;;;;;;8.90;3.25;;;1.80;99.90;;;;;;5068895;28;20052;-80
2023/04/02 04:15:51;;;;;;;4.35;2.92;;;1.80;99.90;;;;;;5069519;28;20047;-81
2023/04/02 04:18:43;;;;;;;6.47;3.53;;;1.80;99.90;;;;;;5090376;28;20495;-81
2023/04/02 04:21:35;;;;;;;4.82;3.47;;;1.80;99.90;;;;;;5064360;28;20056;-81
2023/04/02 04:24:04;;;;;;;5.63;3.33;;;1.80;99.90;;;;;;5072705;28;20134;-80
2023/04/02 04:27:02;;;;;;;5.40;3.05;;;1.80;99.90;;;;;;5088679;28;20080;-81
2023/04/02 04:29:54;;;;;;;5.13;2.95;;;1.70;99.90;;;;;;5067521;28;20134;-81
2023/04/02 04:32:49;;;;;;;6.50;2.73;;;1.70;99.90;;;;;;5058813;28;20054;-80
2023/04/02 04:35:42;;;;;;;4.38;2.72;;;1.70;99.90;;;;;;5067463;28;20521;-81
2023/04/02 04:38:31;;;;;;;3.45;2.35;;;1.70;99.90;;;;;;5090536;28;20160;-80
2023/04/02 04:41:05;;;;;;;5.68;2.75;;;1.70;99.90;;;;;;5072312;28;20296;-80
2023/04/02 04:43:54;;;;;;;3.33;2.70;;;1.70;99.90;;;;;;5054191;28;20142;-81
2023/04/02 04:46:27;;;;;;;4.57;2.88;;;1.70;99.90;;;;;;5089866;28;20044;-80
2023/04/02 04:48:57;;;;;;;6.13;2.55;;;1.70;99.90;;;;;;5090663;28;20192;-80
2023/04/02 04:51:30;;;;;;;3.75;2.20;;;1.60;99.90;;;;;;5088571;28;20722;-81
2023/04/02 04:53:56;;;;;;;4.45;2.40;;;1.60;99.90;;;;;;5070627;28;20097;-80
2023/04/02 04:56:26;;;;;;;6.53;2.35;;;1.60;99.90;;;;;;5090216;28;20040;-81
2023/04/02 04:58:55;;;;;;;6.13;2.60;;;1.50;99.90;;;;;;5073218;28;20083;-81
2023/04/02 05:01:32;;;;;;;3.55;2.35;;;1.50;99.90;;;;;;5053327;28;20044;-81
2023/04/02 05:04:18;;;;;;;2.47;2.22;;;1.50;99.90;;;;;;5089541;28;20155;-81
2023/04/02 05:07:11;;;;;;;3.80;1.95;;;1.50;99.90;;;;;;5070957;28;20040;-81
2023/04/02 05:09:43;;;;;;;4.95;2.60;;;1.50;99.90;;;;;;5071847;28;20052;-81
2023/04/02 05:12:31;;;;;;;5.20;2.17;;;1.50;99.90;;;;;;5092025;28;20484;-81
2023/04/02 05:15:08;;;;;;;5.82;2.80;;;1.50;99.90;;;;;;5076920;28;20131;-81
2023/04/02 05:17:42;;;;;;;2.40;1.98;;;2.10;99.90;;;;;;5087514;28;20117;-81
2023/04/02 05:20:30;;;;;;;6.22;2.08;;;1.50;99.90;;;;;;5088170;28;20044;-81
2023/04/02 05:23:04;;;;;;;4.88;2.40;;;1.50;99.90;;;;;;5087995;28;20071;-81
2023/04/02 05:25:31;;;;;;;4.18;2.03;;;1.50;99.90;;;;;;5071629;28;20055;-80
2023/04/02 05:28:13;;;;;;;4.45;1.67;;;1.50;99.90;;;;;;5069916;28;20040;-80
2023/04/02 05:30:45;;;;;;;4.95;1.85;;;1.50;99.90;;;;;;5089465;28;20222;-81
2023/04/02 05:33:16;;;;;;;6.35;1.92;;;1.50;99.90;;;;;;5070048;28;20040;-80
2023/04/02 05:35:48;;;;;;;1.92;1.40;;;1.50;99.90;;;;;;5087750;28;20046;-81
2023/04/02 05:38:21;;;;;;;5.10;2.00;;;1.50;99.90;;;;;;5066048;28;20048;-81
2023/04/02 05:40:52;;;;;;;3.50;1.60;;;1.50;99.90;;;;;;5068905;28;20399;-80
2023/04/02 05:43:22;;;;;;;2.05;1.58;;;1.50;99.90;;;;;;5064952;28;20041;-81
2023/04/02 05:45:54;;;;;;;4.63;1.60;;;1.50;99.90;;;;;;5054286;28;20139;-81
2023/04/02 05:48:27;;;;;;;5.45;1.52;;;1.40;99.90;;;;;;5087494;28;20040;-81
2023/04/02 05:50:56;;;;;;;3.70;1.60;;;1.40;99.90;;;;;;5068444;28;20048;-81
2023/04/02 05:53:34;;;;;;;2.72;2.03;;;1.40;99.90;;;;;;5084894;28;20375;-81
2023/04/02 05:56:15;;;;;;;5.72;1.77;;;1.40;99.90;;;;;;5070256;28;20083;-79
2023/04/02 05:58:46;;;;;;;3.80;1.60;;;1.30;99.90;;;;;;5065160;28;20047;-79
2023/04/02 06:01:21;;;;;;;5.45;3.00;;;1.30;99.90;;;;;;5064353;28;20043;-80
2023/04/02 06:04:20;;;;;;;4.05;1.40;;;1.30;99.90;;;;;;5085106;28;20045;-81
2023/04/02 06:06:54;;;;;;;4.28;1.77;;;1.40;99.90;;;;;;5060580;28;20441;-78
2023/04/02 06:09:32;;;;;;;5.10;1.60;;;1.40;99.90;;;;;;5080040;28;20772;-82
2023/04/02 06:12:11;;;;;;;4.10;1.58;;;1.50;99.90;;;;;;5042647;28;20044;-80
2023/04/02 06:14:37;;;;;;;2.67;1.38;;;1.50;99.90;;;;;;5050640;28;20049;-80
2023/04/02 06:17:02;;;;;;;3.80;1.50;;;1.50;99.90;;;;;;5063926;28;20036;-80
2023/04/02 06:19:37;;;;;;;3.70;1.58;;;1.50;99.90;;;;;;5069786;28;20497;-80
2023/04/02 06:22:15;;;;;;;3.30;1.98;;;1.60;99.90;;;;;;5070353;28;20495;-81
2023/04/02 06:24:43;;;;;;;7.05;1.67;;;1.60;99.90;;;;;;5068588;28;20080;-81
2023/04/02 06:27:13;;;;;;;2.60;1.10;;;1.70;99.90;;;;;;5060333;28;20048;-81
2023/04/02 06:29:43;;;;;;;2.65;1.15;;;1.70;99.90;;;;;;5079815;28;20036;-81
2023/04/02 06:32:10;;;;;;;2.55;1.20;;;1.80;99.90;;;;;;5062814;28;20090;-81
2023/04/02 06:34:38;;;;;;;3.63;1.60;;;1.80;99.90;;;;;;5061332;28;20044;-80
2023/04/02 06:37:14;;;;;;;6.72;1.75;;;1.80;99.90;;;;;;5060596;28;20092;-81
2023/04/02 06:39:40;;;;;;;4.55;2.03;;;1.90;99.90;;;;;;5062004;28;20512;-81
2023/04/02 06:42:18;;;;;;;1.98;1.10;;;2.00;99.90;;;;;;5059891;28;20040;-80
2023/04/02 06:44:44;;;;;;;3.13;1.45;;;2.00;99.90;;;;;;5042363;28;20086;-83
2023/04/02 06:47:35;;;;;;;5.10;2.22;;;2.10;99.90;;;;;;5066446;28;20879;-83
2023/04/02 06:50:11;;;;;;;4.25;1.38;;;2.20;99.90;;;;;;5051263;28;20546;-83
2023/04/02 06:52:51;;;;;;;4.82;1.40;;;2.30;99.90;;;;;;5059260;28;20044;-82
2023/04/02 06:55:38;;;;;;;5.88;1.58;;;2.30;99.90;;;;;;5044328;28;20470;-83
2023/04/02 06:58:03;;;;;;;2.13;1.30;;;2.40;99.90;;;;;;5052293;28;20063;-83
2023/04/02 07:00:34;;;;;;;3.15;1.80;;;2.50;99.90;;;;;;5049357;28;20048;-83
2023/04/02 07:03:12;;;;;;;3.00;1.55;;;2.60;99.90;;;;;;5064872;28;20118;-83
2023/04/02 07:05:40;;;;;;;3.33;1.50;;;2.60;99.90;;;;;;5060633;28;20054;-83
2023/04/02 07:08:06;;;;;;;4.07;1.60;;;2.70;99.90;;;;;;5061429;28;20040;-84
2023/04/02 07:10:32;;;;;;;4.43;1.40;;;2.80;99.90;;;;;;5068845;28;20482;-83
2023/04/02 07:13:01;;;;;;;2.33;1.70;;;2.90;99.90;;;;;;5069312;28;20044;-84
2023/04/02 07:15:27;;;;;;;4.75;1.98;;;2.90;99.90;;;;;;5069437;28;20044;-84
2023/04/02 07:17:55;;;;;;;3.53;1.58;;;2.90;99.90;;;;;;5068672;28;20458;-83
2023/04/02 07:20:29;;;;;;;5.88;1.52;;;3.00;99.90;;;;;;5069409;28;20063;-82
2023/04/02 07:22:55;;;;;;;1.83;1.50;;;3.00;99.90;;;;;;5069544;28;20056;-83
2023/04/02 07:25:21;;;;;;;3.75;1.50;;;3.00;99.90;;;;;;5069525;28;20040;-83
2023/04/02 07:27:47;;;;;;;3.03;1.50;;;3.00;99.90;;;;;;5069990;28;20044;-83
2023/04/02 07:30:13;;;;;;;4.38;2.05;;;3.10;99.90;;;;;;5069457;28;20105;-83
2023/04/02 07:32:39;;;;;;;3.72;2.22;;;3.20;99.90;;;;;;5068981;28;20646;-83
2023/04/02 07:35:05;;;;;;;3.50;1.60;;;3.30;99.90;;;;;;5067968;28;20401;-83
2023/04/02 07:37:31;;;;;;;4.68;1.60;;;3.30;99.90;;;;;;5056123;28;20052;-83
2023/04/02 07:39:56;;;;;;;2.50;1.60;;;3.30;99.90;;;;;;5073594;28;20109;-83
2023/04/02 07:42:22;;;;;;;5.43;2.10;;;3.40;99.90;;;;;;5056366;28;20072;-82
2023/04/02 07:44:48;;;;;;;1.52;1.40;;;3.40;99.90;;;;;;5073487;28;20052;-83
2023/04/02 07:47:13;;;;;;;2.88;1.92;;;3.50;99.90;;;;;;5055699;28;20139;-83
2023/04/02 07:49:39;;;;;;;3.55;1.95;;;3.50;99.90;;;;;;5073384;28;20093;-83
2023/04/02 07:52:05;;;;;;;3.83;1.70;;;3.50;99.90;;;;;;5072371;28;20066;-83
2023/04/02 07:54:31;;;;;;;3.55;1.60;;;3.60;99.90;;;;;;5072695;28;20085;-82
2023/04/02 07:56:57;;;;;;;4.45;1.95;;;3.80;99.90;;;;;;5069915;28;20044;-84
2023/04/02 07:59:22;;;;;;;3.53;1.40;;;3.80;99.90;;;;;;5063545;28;20716;-83
2023/04/02 08:01:48;;;;;;;5.20;1.75;;;3.90;99.90;;;;;;5084301;28;20048;-83
2023/04/02 08:04:21;;;;;;;4.18;1.65;;;4.10;99.90;;;;;;5072568;28;20123;-83
2023/04/02 08:06:48;;;;;;;2.70;1.77;;;4.20;99.90;;;;;;5072914;28;20056;-84
2023/04/02 08:09:14;;;;;;;5.78;1.70;;;4.30;99.90;;;;;;5072915;28;20082;-84
2023/04/02 08:11:41;;;;;;;3.65;1.70;;;4.20;99.90;;;;;;5057214;28;20105;-83
2023/04/02 08:14:08;;;;;;;2.90;1.85;;;4.20;99.90;;;;;;5073165;28;20048;-84
2023/04/02 08:16:54;;;;;;;4.00;1.95;;;4.10;99.90;;;;;;5055881;28;20040;-83
2023/04/02 08:19:21;;;;;;;5.90;2.03;;;4.10;99.90;;;;;;5073095;28;20052;-83
2023/04/02 08:21:50;;;;;;;4.82;2.20;;;4.40;99.90;;;;;;5056404;28;20048;-83
2023/04/02 08:24:18;;;;;;;4.10;1.75;;;4.60;99.90;;;;;;5071950;28;20054;-84
2023/04/02 08:26:45;;;;;;;2.33;1.50;;;4.90;99.90;;;;;;5073422;28;20131;-83
2023/04/02 08:29:10;;;;;;;3.53;1.75;;;5.10;99.90;;;;;;5072891;28;20438;-84
2023/04/02 08:31:36;;;;;;;4.38;1.70;;;5.10;99.90;;;;;;5072931;28;20089;-84
2023/04/02 08:34:02;;;;;;;2.47;1.20;;;5.10;99.90;;;;;;5072661;28;20040;-83
2023/04/02 08:36:37;;;;;;;2.97;1.85;;;5.10;99.90;;;;;;5070813;28;20109;-84
2023/04/02 08:39:05;;;;;;;3.88;2.00;;;5.10;99.90;;;;;;5088953;28;20040;-84
2023/04/02 08:41:37;;;;;;;1.88;1.58;;;5.20;99.90;;;;;;5071975;28;20036;-84
2023/04/02 08:44:35;;;;;;;3.10;1.67;;;5.30;99.90;;;;;;5072189;28;20052;-84
2023/04/02 08:47:06;;;;;;;2.92;1.52;;;5.30;99.90;;;;;;5057787;28;20052;-84
2023/04/02 08:49:56;;;;;;;5.45;2.75;;;5.40;99.90;;;;;;5072213;28;20106;-83
2023/04/02 08:52:35;;;;;;;2.63;1.70;;;5.30;99.90;;;;;;5072025;28;20044;-84
2023/04/02 08:55:03;;;;;;;4.63;1.70;;;5.30;99.90;;;;;;5056138;28;20055;-84
2023/04/02 08:57:45;;;;;;;4.70;2.08;;;5.20;99.90;;;;;;5073566;28;20506;-83
2023/04/02 09:00:35;;;;;;;3.78;1.58;;;5.20;99.90;;;;;;5072825;28;20061;-81
2023/04/02 09:03:16;;;;;;;3.45;1.80;;;5.20;99.90;;;;;;5072542;28;20067;-82
2023/04/02 09:05:43;;;;;;;2.72;1.40;;;5.40;99.90;;;;;;5056179;28;20040;-84
2023/04/02 09:08:17;;;;;;;3.35;2.10;;;5.50;99.90;;;;;;5071464;28;20062;-83
2023/04/02 09:11:07;;;;;;;3.20;1.50;;;5.60;99.90;;;;;;5071181;28;20051;-83
2023/04/02 09:13:36;;;;;;;4.30;1.48;;;5.70;99.90;;;;;;5055680;28;20040;-82
2023/04/02 09:16:04;;;;;;;3.25;1.60;;;5.70;99.90;;;;;;5072847;28;20087;-84
2023/04/02 09:18:31;;;;;;;4.65;1.77;;;5.80;99.90;;;;;;5055499;28;20135;-83
2023/04/02 09:20:57;;;;;;;1.77;1.40;;;6.30;99.90;;;;;;5090700;28;20127;-84
2023/04/02 09:23:24;;;;;;;2.53;1.25;;;5.80;99.90;;;;;;5071830;28;20147;-83
2023/04/02 09:25:51;;;;;;;5.28;1.50;;;5.80;99.90;;;;;;5072150;28;20058;-83
2023/04/02 09:28:23;;;;;;;4.95;1.55;;;5.70;99.90;;;;;;5071542;28;20048;-84
2023/04/02 09:31:09;;;;;;;2.45;1.42;;;5.70;99.90;;;;;;5089979;28;20044;-83
2023/04/02 09:33:43;;;;;;;1.80;1.50;;;5.80;99.90;;;;;;5071727;28;20055;-83
2023/04/02 09:36:37;;;;;;;3.50;1.48;;;5.80;99.90;;;;;;5069406;28;20062;-84
2023/04/02 09:39:16;;;;;;;2.33;1.63;;;6.00;99.90;;;;;;5069208;28;20051;-82
2023/04/02 09:41:42;;;;;;;3.58;1.75;;;6.00;99.90;;;;;;5071542;28;20056;-82
2023/04/02 09:44:26;;;;;;;3.53;1.35;;;6.00;99.90;;;;;;5050815;28;21856;-83
2023/04/02 09:47:04;;;;;;;2.70;1.40;;;6.10;99.90;;;;;;5087947;28;20040;-83
2023/04/02 09:49:33;;;;;;;4.57;1.73;;;6.10;99.90;;;;;;5054006;28;20052;-82
2023/04/02 09:52:04;;;;;;;4.93;1.20;;;6.20;99.90;;;;;;5072053;28;20066;-82
2023/04/02 09:54:30;;;;;;;2.45;1.17;;;6.30;99.90;;;;;;5070537;28;20459;-81
2023/04/02 09:57:03;;;;;;;2.58;1.25;;;6.40;99.90;;;;;;5089113;28;20051;-81
2023/04/02 09:59:29;;;;;;;3.35;1.58;;;6.30;99.90;;;;;;5070973;28;20040;-82
2023/04/02 10:01:55;;;;;;;2.78;1.25;;;6.30;99.90;;;;;;5063696;28;20098;-82
2023/04/02 10:04:33;;;;;;;5.53;1.42;;;6.40;99.90;;;;;;5050328;28;20703;-82
2023/04/02 10:06:58;;;;;;;3.40;1.50;;;6.60;99.90;;;;;;5033119;28;20101;-82
2023/04/02 10:09:32;;;;;;;3.50;1.15;;;6.60;99.90;;;;;;5086709;28;20036;-81
2023/04/02 10:12:01;;;;;;;3.38;1.27;;;6.60;99.90;;;;;;5087468;28;20044;-82
2023/04/02 10:14:32;;;;;;;2.42;1.15;;;6.70;99.90;;;;;;5070248;28;20051;-81
2023/04/02 10:17:14;;;;;;;2.90;1.10;;;6.70;99.90;;;;;;5070305;28;20043;-81
2023/04/02 10:19:47;;;;;;;2.30;1.05;;;6.50;99.90;;;;;;5086745;28;20036;-81
2023/04/02 10:22:19;;;;;;;1.25;1.15;;;6.80;99.90;;;;;;5068314;28;20044;-82
2023/04/02 10:24:45;;;;;;;2.20;1.10;;;7.00;99.90;;;;;;5068958;28;20048;-80
2023/04/02 10:27:17;;;;;;;1.25;1.10;;;7.20;99.90;;;;;;5069365;28;20174;-80
2023/04/02 10:30:09;;;;;;;4.22;1.30;;;7.20;99.90;;;;;;5048729;28;20126;-81
2023/04/02 10:32:40;;;;;;;5.03;1.50;;;7.20;99.90;;;;;;5062509;28;20048;-82
2023/04/02 10:35:36;;;;;;;2.45;1.20;;;7.30;99.90;;;;;;5080519;28;20130;-81
2023/04/02 10:38:21;;;;;;;3.78;1.40;;;7.20;99.90;;;;;;5062971;28;20067;-81
2023/04/02 10:40:50;;;;;;;2.55;1.10;;;7.20;99.90;;;;;;5056509;28;20454;-81
2023/04/02 10:43:35;;;;;;;2.85;1.15;;;7.30;99.90;;;;;;5056865;28;20090;-80
2023/04/02 10:46:41;;;;;;;1.40;1.20;;;7.50;99.90;;;;;;5055250;28;20052;-80
2023/04/02 10:49:39;;;;;;;1.58;1.00;;;7.50;99.90;;;;;;5055593;28;20044;-80
2023/04/02 10:52:25;;;;;;;2.08;1.02;;;7.60;99.90;;;;;;5060736;28;20095;-81
2023/04/02 10:55:04;;;;;;;3.22;1.23;;;7.80;99.90;;;;;;5058823;28;20060;-82
2023/04/02 10:57:37;;;;;;;3.10;1.20;;;7.90;99.90;;;;;;5059702;28;20620;-81
2023/04/02 11:00:14;;;;;;;2.22;1.00;;;8.00;99.90;;;;;;5077309;28;20044;-81
2023/04/02 11:02:49;;;;;;;1.90;1.10;;;8.10;99.90;;;;;;5042446;28;20044;-82
2023/04/02 11:05:27;;;;;;;4.10;1.20;;;8.10;99.90;;;;;;5059072;28;20032;-83
2023/04/02 11:08:04;;;;;;;1.83;1.00;;;8.10;99.90;;;;;;5057113;28;20159;-82
2023/04/02 11:10:34;;;;;;;2.75;1.00;;;8.10;99.90;;;;;;5058294;28;20123;-81
2023/04/02 11:13:07;;;;;;;1.95;1.13;;;8.10;99.90;;;;;;5040108;28;20041;-81
2023/04/02 11:15:35;;;;;;;3.30;1.17;;;8.10;99.90;;;;;;5080497;28;20058;-80
2023/04/02 11:18:00;;;;;;;2.90;1.13;;;8.10;99.90;;;;;;5060352;28;20040;-82
2023/04/02 11:20:48;;;;;;;2.42;1.20;;;8.10;99.90;;;;;;5066079;28;20093;-81
2023/04/02 11:23:17;;;;;;;1.83;1.00;;;8.00;99.90;;;;;;5077327;28;20114;-81
2023/04/02 11:25:44;;;;;;;3.83;1.35;;;8.00;99.90;;;;;;5046422;28;20051;-82
2023/04/02 11:28:30;;;;;;;2.10;1.00;;;8.00;99.90;;;;;;5050778;28;20051;-81
2023/04/02 11:30:56;;;;;;;2.55;0.90;;;8.00;99.90;;;;;;5051238;28;20059;-82
2023/04/02 11:33:39;;;;;;;4.97;1.60;;;8.10;99.90;;;;;;5065927;28;20155;-81
2023/04/02 11:36:42;;;;;;;1.77;1.00;;;8.20;99.90;;;;;;5065056;28;20126;-81
2023/04/02 11:39:09;;;;;;;4.03;1.25;;;8.30;99.40;;;;;;5065022;28;20181;-81
2023/04/02 11:42:01;;;;;;;1.55;1.10;;;8.30;99.90;;;;;;5066622;28;20064;-81
2023/04/02 11:44:27;;;;;;;2.85;1.15;;;8.50;99.90;;;;;;5063209;28;20494;-81
2023/04/02 11:47:22;;;;;;;1.92;1.10;;;8.40;99.90;;;;;;5062952;28;20044;-81
2023/04/02 11:49:55;;;;;;;2.42;1.10;;;8.40;98.50;;;;;;5054315;28;20139;-81
2023/04/02 11:52:43;;;;;;;4.40;1.10;;;8.40;99.90;;;;;;5085484;28;20050;-80
2023/04/02 11:55:26;;;;;;;3.28;1.20;;;8.40;99.90;;;;;;5050212;28;20060;-80
2023/04/02 11:57:56;;;;;;;1.52;1.05;;;8.40;97.80;;;;;;5081940;28;20060;-81
2023/04/02 12:00:30;;;;;;;2.25;0.90;;;8.40;99.90;;;;;;5066839;28;20103;-81
2023/04/02 12:03:12;;;;;;;3.15;1.30;;;8.60;99.90;;;;;;5068554;28;20474;-81
2023/04/02 12:06:12;;;;;;;2.20;1.08;;;8.70;99.30;;;;;;5050699;28;20529;-81
2023/04/02 12:08:53;;;;;;;2.28;1.00;;;8.80;97.10;;;;;;5067323;28;20055;-81
2023/04/02 12:11:31;;;;;;;4.63;1.25;;;8.80;98.20;;;;;;5086023;28;20051;-80
2023/04/02 12:13:58;;;;;;;3.65;1.10;;;8.80;98.80;;;;;;5047203;28;20513;-80
2023/04/02 12:16:30;;;;;;;2.58;1.02;;;8.80;99.70;;;;;;5065619;28;20063;-79
2023/04/02 12:18:56;;;;;;;2.20;1.63;;;8.90;99.90;;;;;;5083499;28;20052;-80
2023/04/02 12:21:27;;;;;;;2.13;1.17;;;9.00;99.90;;;;;;5067972;28;20044;-80
2023/04/02 12:24:00;;;;;;;2.90;1.70;;;9.10;99.90;;;;;;5054476;28;20087;-79
2023/04/02 12:26:36;;;;;;;1.27;0.98;;;9.30;98.20;;;;;;5067353;28;20310;-80
2023/04/02 12:29:25;;;;;;;3.55;1.10;;;9.20;97.00;;;;;;5056265;28;20188;-80
2023/04/02 12:31:54;;;;;;;2.00;1.20;;;9.30;99.10;;;;;;5089395;28;20123;-80
2023/04/02 12:34:22;;;;;;;2.80;0.93;;;9.40;99.80;;;;;;5070423;28;20543;-80
2023/04/02 12:37:27;;;;;;;2.53;1.10;;;9.50;98.60;;;;;;5069091;28;20549;-80
2023/04/02 12:40:05;;;;;;;5.28;1.70;;;9.50;95.60;;;;;;5070301;28;20048;-80
2023/04/02 12:42:34;;;;;;;2.15;1.38;;;9.60;97.70;;;;;;5060005;28;20036;-81
2023/04/02 12:45:02;;;;;;;3.28;1.30;;;9.70;98.30;;;;;;5085000;28;20441;-80
2023/04/02 12:47:28;;;;;;;3.10;1.27;;;9.50;98.20;;;;;;5069519;28;20044;-80
2023/04/02 12:49:57;;;;;;;3.33;1.20;;;9.40;98.20;;;;;;5087973;28;20465;-81
2023/04/02 12:52:27;;;;;;;4.97;1.30;;;9.50;99.00;;;;;;5072273;28;20139;-80
2023/04/02 12:55:02;;;;;;;2.58;0.80;;;9.50;98.70;;;;;;5069896;28;20048;-80
2023/04/02 12:57:28;;;;;;;0.90;0.90;;;9.50;96.30;;;;;;5069389;28;20044;-82
2023/04/02 13:00:05;;;;;;;2.05;0.95;;;9.40;97.40;;;;;;5054299;28;20067;-81
2023/04/02 13:02:44;;;;;;;1.50;1.23;;;9.30;96.50;;;;;;5054780;28;20083;-81
2023/04/02 13:05:11;;;;;;;1.50;0.98;;;9.40;97.00;;;;;;5087269;28;20040;-80
2023/04/02 13:07:37;;;;;;;3.22;1.17;;;9.40;96.10;;;;;;5087987;28;20118;-81
2023/04/02 13:10:24;;;;;;;2.40;1.35;;;9.40;96.70;;;;;;5089918;28;20075;-81
2023/04/02 13:12:55;;;;;;;2.95;1.00;;;9.40;92.00;;;;;;5069387;28;20498;-80
2023/04/02 13:15:33;;;;;;;2.30;1.10;;;9.40;95.90;;;;;;5087435;28;20527;-81
2023/04/02 13:18:01;;;;;;;2.60;1.02;;;9.40;95.80;;;;;;5069784;28;20051;-81
2023/04/02 13:20:36;;;;;;;2.15;1.05;;;9.50;97.10;;;;;;5054332;28;20040;-81
2023/04/02 13:23:27;;;;;;;3.00;1.17;;;9.50;97.00;;;;;;5087588;28;20043;-81
2023/04/02 13:26:10;;;;;;;1.80;1.00;;;9.50;92.70;;;;;;5070199;28;20135;-80
2023/04/02 13:28:36;;;;;;;2.13;1.10;;;9.60;97.00;;;;;;5086029;28;20498;-81
2023/04/02 13:31:01;;;;;;;1.75;1.30;;;9.60;97.20;;;;;;5070468;28;20054;-82
2023/04/02 13:33:30;;;;;;;2.45;1.10;;;9.70;96.70;;;;;;5089080;28;20048;-82
2023/04/02 13:35:55;;;;;;;2.80;1.30;;;9.70;97.00;;;;;;5069961;28;20078;-82
2023/04/02 13:38:21;;;;;;;2.05;1.30;;;9.90;97.40;;;;;;5088923;28;20445;-82